Time;durP1;ratioP1;P1;durP2;ratioP2;P2;SDS_P1;SDS_P2;PMS_P1;PMS_P2;Temp;Humidity;BMP_temperature;BMP_pressure;BME280_temperature;BME280_humidity;BME280_pressure;Samples;Min_cycle;Max_cycle;Signal;HPM_P1;HPM_P2
2022/04/25 00:01:37;;;;;;;;;20.75;20.25;;;;;-143.93;100.00;62969.28;5002330;28;8817;-69
2022/04/25 00:04:03;;;;;;;;;20.75;18.25;;;;;-143.93;100.00;62969.28;4992177;28;8824;-69
2022/04/25 00:06:30;;;;;;;;;19.25;18.75;;;;;-143.93;100.00;62969.28;4991414;28;8823;-69
2022/04/25 00:08:55;;;;;;;;;18.75;18.50;;;;;-143.93;100.00;62969.28;4992033;28;8797;-69
2022/04/25 00:11:20;;;;;;;;;21.75;20.75;;;;;-143.93;100.00;62969.28;4988627;28;8843;-69
2022/04/25 00:13:46;;;;;;;;;22.50;19.50;;;;;-143.93;100.00;62969.28;4990269;28;8950;-69
2022/04/25 00:16:13;;;;;;;;;22.50;20.50;;;;;-143.93;100.00;62969.28;4991620;28;8824;-69
2022/04/25 00:18:39;;;;;;;;;19.75;19.00;;;;;-143.93;100.00;62969.28;4996005;28;8789;-69
2022/04/25 00:21:05;;;;;;;;;19.50;18.75;;;;;-143.93;100.00;62969.28;4999797;28;8853;-70
2022/04/25 00:23:31;;;;;;;;;20.25;20.00;;;;;-143.93;100.00;62969.28;4999685;28;8823;-69
2022/04/25 00:25:56;;;;;;;;;23.75;20.50;;;;;-143.93;100.00;62969.28;4986546;28;8808;-69
2022/04/25 00:28:22;;;;;;;;;17.00;17.00;;;;;-143.93;100.00;62969.28;5018033;28;8861;-69
2022/04/25 00:30:47;;;;;;;;;21.50;17.75;;;;;-143.93;100.00;62969.28;4999747;28;9552;-70
2022/04/25 00:33:13;;;;;;;;;23.75;19.75;;;;;-143.93;100.00;62969.28;4999981;28;8979;-69
2022/04/25 00:35:39;;;;;;;;;24.50;18.75;;;;;-143.93;100.00;62969.28;5001069;28;8836;-69
2022/04/25 00:38:04;;;;;;;;;20.25;19.50;;;;;-143.93;100.00;62969.28;5002721;28;8946;-69
2022/04/25 00:40:30;;;;;;;;;17.00;14.75;;;;;-143.93;100.00;62969.28;5001636;28;8871;-69
2022/04/25 00:42:55;;;;;;;;;17.75;17.25;;;;;-143.93;100.00;62969.28;4993206;28;8976;-69
2022/04/25 00:45:21;;;;;;;;;20.25;19.00;;;;;-143.93;100.00;62969.28;4990916;28;15965;-69
2022/04/25 00:47:47;;;;;;;;;19.50;16.75;;;;;-143.93;100.00;62969.28;4998950;28;8864;-68
2022/04/25 00:50:13;;;;;;;;;17.00;16.75;;;;;-143.93;100.00;62969.28;5003833;28;8816;-69
2022/04/25 00:52:39;;;;;;;;;19.50;17.50;;;;;-143.93;100.00;62969.28;5001118;28;8829;-69
2022/04/25 00:55:07;;;;;;;;;17.50;17.00;;;;;-143.93;100.00;62969.28;4999497;28;9649;-69
2022/04/25 00:57:34;;;;;;;;;17.50;17.25;;;;;-143.93;100.00;62969.28;5014815;28;8797;-69
2022/04/25 01:00:00;;;;;;;;;16.25;15.50;;;;;-143.93;100.00;62969.28;5051413;27;8797;-68
2022/04/25 01:02:27;;;;;;;;;18.25;17.00;;;;;-143.93;100.00;62969.28;4986244;28;8795;-69
2022/04/25 01:04:54;;;;;;;;;24.25;16.25;;;;;-143.93;100.00;62969.28;5004096;28;8805;-69
2022/04/25 01:07:19;;;;;;;;;19.00;15.00;;;;;-143.93;100.00;62969.28;5001471;28;8906;-69
2022/04/25 01:09:45;;;;;;;;;16.75;15.25;;;;;-143.93;100.00;62969.28;4999125;28;8841;-69
2022/04/25 01:12:10;;;;;;;;;17.00;15.00;;;;;-143.93;100.00;62969.28;4999045;28;8876;-70
2022/04/25 01:14:36;;;;;;;;;24.00;21.75;;;;;-143.93;100.00;62969.28;5000864;28;9578;-69
2022/04/25 01:17:02;;;;;;;;;29.75;26.50;;;;;-143.93;100.00;62969.28;4999879;28;21440;-70
2022/04/25 01:19:28;;;;;;;;;19.75;19.75;;;;;-143.93;100.00;62969.28;5001217;28;8955;-70
2022/04/25 01:21:58;;;;;;;;;17.50;15.50;;;;;-143.93;100.00;62969.28;4993356;28;8946;-70
2022/04/25 01:27:18;;;;;;;;;20.25;15.25;;;;;-143.93;100.00;62969.28;5000700;28;8836;-70
2022/04/25 01:29:46;;;;;;;;;19.75;16.75;;;;;-143.93;100.00;62969.28;5003693;27;8920;-70
2022/04/25 01:32:12;;;;;;;;;18.50;16.25;;;;;-143.93;100.00;62969.28;4986434;28;8785;-69
2022/04/25 01:34:38;;;;;;;;;17.50;15.00;;;;;-143.93;100.00;62969.28;4998265;28;8805;-70
2022/04/25 01:37:08;;;;;;;;;21.75;15.00;;;;;-143.93;100.00;62969.28;4991529;28;8808;-69
2022/04/25 01:39:35;;;;;;;;;17.00;14.25;;;;;-143.93;100.00;62969.28;4990211;28;8824;-69
2022/04/25 01:42:01;;;;;;;;;19.00;16.75;;;;;-143.93;100.00;62969.28;4990847;28;8824;-69
2022/04/25 01:44:26;;;;;;;;;20.50;14.75;;;;;-143.93;100.00;62969.28;4987804;28;8929;-70
2022/04/25 01:46:52;;;;;;;;;21.00;16.75;;;;;-143.93;100.00;62969.28;4988594;28;8851;-69
2022/04/25 01:49:17;;;;;;;;;14.25;14.00;;;;;-143.93;100.00;62969.28;4990922;28;8847;-69
2022/04/25 01:51:43;;;;;;;;;19.50;15.00;;;;;-143.93;100.00;62969.28;4989924;28;8831;-69
2022/04/25 01:54:08;;;;;;;;;20.50;19.75;;;;;-143.93;100.00;62969.28;4989998;28;8933;-69
2022/04/25 01:56:34;;;;;;;;;25.25;14.50;;;;;-143.93;100.00;62969.28;4988451;28;8858;-69
2022/04/25 01:59:00;;;;;;;;;21.00;15.75;;;;;-143.93;100.00;62969.28;5065831;28;8828;-69
2022/04/25 02:01:25;;;;;;;;;18.75;15.00;;;;;-143.93;100.00;62969.28;5002937;28;8845;-70
2022/04/25 02:03:50;;;;;;;;;16.75;15.50;;;;;-143.93;100.00;62969.28;5000472;28;11965;-70
2022/04/25 02:06:16;;;;;;;;;29.00;24.00;;;;;-143.93;100.00;62969.28;4998498;28;8853;-70
2022/04/25 02:08:41;;;;;;;;;21.50;15.75;;;;;-143.93;100.00;62969.28;4999565;28;8828;-69
2022/04/25 02:11:25;;;;;;;;;20.75;16.75;;;;;-143.93;100.00;62969.28;5001827;28;8875;-69
2022/04/25 02:13:52;;;;;;;;;16.50;14.75;;;;;-143.93;100.00;62969.28;4996982;28;8852;-69
2022/04/25 02:16:19;;;;;;;;;21.75;15.75;;;;;-143.93;100.00;62969.28;4993960;28;8804;-70
2022/04/25 02:18:44;;;;;;;;;16.75;15.25;;;;;-143.93;100.00;62969.28;4993071;28;8877;-70
2022/04/25 02:21:10;;;;;;;;;15.75;14.50;;;;;-143.93;100.00;62969.28;4993030;28;8847;-69
2022/04/25 02:23:37;;;;;;;;;17.25;14.25;;;;;-143.93;100.00;62969.28;4991424;28;8878;-69
2022/04/25 02:26:02;;;;;;;;;18.00;13.25;;;;;-143.93;100.00;62969.28;4990765;28;8784;-69
2022/04/25 02:28:28;;;;;;;;;24.00;21.50;;;;;-143.93;100.00;62969.28;4992950;28;11020;-69
2022/04/25 02:30:53;;;;;;;;;18.75;13.50;;;;;-143.93;100.00;62969.28;4996078;28;8928;-69
2022/04/25 02:33:19;;;;;;;;;19.00;15.75;;;;;-143.93;100.00;62969.28;4996821;28;8839;-69
2022/04/25 02:35:44;;;;;;;;;19.50;15.50;;;;;-143.93;100.00;62969.28;5004742;28;8808;-69
2022/04/25 02:38:10;;;;;;;;;18.25;15.00;;;;;-143.93;100.00;62969.28;5006954;28;8851;-69
2022/04/25 02:40:36;;;;;;;;;17.75;16.50;;;;;-143.93;100.00;62969.28;4995341;28;8822;-69
2022/04/25 02:43:01;;;;;;;;;18.00;13.75;;;;;-143.93;100.00;62969.28;4995656;28;8917;-69
2022/04/25 02:45:27;;;;;;;;;20.50;15.25;;;;;-143.93;100.00;62969.28;4995912;28;8824;-69
2022/04/25 02:47:53;;;;;;;;;22.50;16.50;;;;;-143.93;100.00;62969.28;4996034;28;8805;-69
2022/04/25 02:50:19;;;;;;;;;22.75;20.25;;;;;-143.93;100.00;62969.28;4991825;28;8851;-69
2022/04/25 02:52:44;;;;;;;;;20.25;16.25;;;;;-143.93;100.00;62969.28;5010521;28;8794;-69
2022/04/25 02:55:09;;;;;;;;;20.50;18.25;;;;;-143.93;100.00;62969.28;5008343;28;8817;-69
2022/04/25 02:57:35;;;;;;;;;24.75;18.25;;;;;-143.93;100.00;62969.28;5007625;28;8841;-69
2022/04/25 03:00:00;;;;;;;;;17.00;15.25;;;;;-143.93;100.00;62969.28;5004212;28;9649;-69
2022/04/25 03:02:26;;;;;;;;;27.25;23.00;;;;;-143.93;100.00;62969.28;4992720;28;8835;-69
2022/04/25 03:04:51;;;;;;;;;23.00;17.00;;;;;-143.93;100.00;62969.28;5009436;28;8801;-69
2022/04/25 03:07:16;;;;;;;;;28.25;20.25;;;;;-143.93;100.00;62969.28;5008989;28;8880;-69
2022/04/25 03:09:41;;;;;;;;;20.50;16.00;;;;;-143.93;100.00;62969.28;5007833;28;8832;-69
2022/04/25 03:12:07;;;;;;;;;18.67;15.67;;;;;-143.93;100.00;62969.28;5007420;28;21783;-69
2022/04/25 03:14:34;;;;;;;;;34.50;23.25;;;;;-143.93;100.00;62969.28;5007987;28;8981;-69
2022/04/25 03:17:00;;;;;;;;;23.25;17.00;;;;;-143.93;100.00;62969.28;5009270;28;8822;-69
2022/04/25 03:19:25;;;;;;;;;20.50;17.25;;;;;-143.93;100.00;62969.28;5007793;28;8805;-69
2022/04/25 03:21:50;;;;;;;;;26.50;20.00;;;;;-143.93;100.00;62969.28;5007800;28;12423;-69
2022/04/25 03:24:15;;;;;;;;;27.50;20.25;;;;;-143.93;100.00;62969.28;5007789;28;8821;-69
2022/04/25 03:26:41;;;;;;;;;25.50;21.25;;;;;-143.93;100.00;62969.28;5007380;28;9532;-69
2022/04/25 03:29:06;;;;;;;;;26.25;20.50;;;;;-143.93;100.00;62969.28;5007757;27;8855;-69
2022/04/25 03:31:32;;;;;;;;;23.75;21.50;;;;;-143.93;100.00;62969.28;5009889;28;8801;-69
2022/04/25 03:33:57;;;;;;;;;21.50;19.50;;;;;-143.93;100.00;62969.28;5005842;28;10326;-69
2022/04/25 03:36:22;;;;;;;;;26.00;18.75;;;;;-143.93;100.00;62969.28;5007763;28;8843;-69
2022/04/25 03:38:48;;;;;;;;;27.00;22.00;;;;;-143.93;100.00;62969.28;5007685;28;12707;-69
2022/04/25 03:41:13;;;;;;;;;22.25;19.00;;;;;-143.93;100.00;62969.28;5004600;28;10963;-69
2022/04/25 03:43:38;;;;;;;;;25.50;20.75;;;;;-143.93;100.00;62969.28;5008986;28;15995;-69
2022/04/25 03:46:04;;;;;;;;;17.75;17.50;;;;;-143.93;100.00;62969.28;5007975;28;8821;-69
2022/04/25 03:48:30;;;;;;;;;24.75;21.25;;;;;-143.93;100.00;62969.28;5007521;28;8817;-69
2022/04/25 03:50:56;;;;;;;;;23.75;21.00;;;;;-143.93;100.00;62969.28;5007599;28;8855;-69
2022/04/25 03:53:21;;;;;;;;;24.75;18.50;;;;;-143.93;100.00;62969.28;5007277;28;8841;-69
2022/04/25 03:58:31;;;;;;;;;23.00;20.50;;;;;-143.93;100.00;62969.28;4992706;28;8788;-69
2022/04/25 04:00:56;;;;;;;;;25.50;20.25;;;;;-143.93;100.00;62969.28;5007956;28;8829;-69
2022/04/25 04:03:22;;;;;;;;;21.50;19.75;;;;;-143.93;100.00;62969.28;5007400;28;8845;-69
2022/04/25 04:05:48;;;;;;;;;30.25;21.75;;;;;-143.93;100.00;62969.28;5008778;28;8900;-69
2022/04/25 04:08:14;;;;;;;;;25.50;20.25;;;;;-143.93;100.00;62969.28;5007674;28;8828;-69
2022/04/25 04:10:40;;;;;;;;;27.50;19.75;;;;;-143.93;100.00;62969.28;5009418;28;8838;-69
2022/04/25 04:13:05;;;;;;;;;28.25;21.25;;;;;-143.93;100.00;62969.28;5007497;28;8910;-69
2022/04/25 04:15:31;;;;;;;;;22.75;20.25;;;;;-143.93;100.00;62969.28;5007165;28;8821;-69
2022/04/25 04:17:57;;;;;;;;;26.50;20.00;;;;;-143.93;100.00;62969.28;5007292;28;8835;-69
2022/04/25 04:20:22;;;;;;;;;27.50;22.00;;;;;-143.93;100.00;62969.28;5007619;28;8955;-69
2022/04/25 04:22:48;;;;;;;;;29.25;24.75;;;;;-143.93;100.00;62969.28;5008768;28;8840;-69
2022/04/25 04:25:13;;;;;;;;;24.75;22.00;;;;;-143.93;100.00;62969.28;5007749;28;8821;-69
2022/04/25 04:27:41;;;;;;;;;29.75;22.50;;;;;-143.93;100.00;62969.28;4997047;28;8843;-69
2022/04/25 04:30:10;;;;;;;;;30.50;23.00;;;;;-143.93;100.00;62969.28;4998681;28;8810;-69
2022/04/25 04:32:38;;;;;;;;;23.00;21.25;;;;;-143.93;100.00;62969.28;5007069;28;8830;-69
2022/04/25 04:35:06;;;;;;;;;29.50;22.25;;;;;-143.93;100.00;62969.28;5007091;28;8919;-69
2022/04/25 04:37:34;;;;;;;;;26.25;22.75;;;;;-143.93;100.00;62969.28;5009143;28;8809;-69
2022/04/25 04:42:45;;;;;;;;;28.50;23.75;;;;;-143.93;100.00;62969.28;5007239;28;8801;-69
2022/04/25 04:45:12;;;;;;;;;31.00;24.75;;;;;-143.93;100.00;62969.28;5006852;28;8906;-69
2022/04/25 04:47:39;;;;;;;;;29.00;22.50;;;;;-143.93;100.00;62969.28;5006849;28;8794;-69
2022/04/25 04:50:07;;;;;;;;;26.00;20.75;;;;;-143.93;100.00;62969.28;5007308;28;8901;-69
2022/04/25 04:52:33;;;;;;;;;34.75;29.75;;;;;-143.93;100.00;62969.28;5007700;28;9580;-70
2022/04/25 04:54:58;;;;;;;;;28.50;25.25;;;;;-143.93;100.00;62969.28;5006561;28;8841;-69
2022/04/25 04:57:24;;;;;;;;;24.75;22.00;;;;;-143.93;100.00;62969.28;5004324;28;8835;-69
2022/04/25 04:59:49;;;;;;;;;33.00;25.50;;;;;-143.93;100.00;62969.28;5006622;28;8906;-69
2022/04/25 05:02:16;;;;;;;;;29.75;22.50;;;;;-143.93;100.00;62969.28;5006800;28;9579;-69
2022/04/25 05:04:45;;;;;;;;;24.75;23.75;;;;;-143.93;100.00;62969.28;5005646;28;8874;-69
2022/04/25 05:07:10;;;;;;;;;34.25;26.25;;;;;-143.93;100.00;62969.28;5006858;28;9417;-69
2022/04/25 05:09:36;;;;;;;;;35.25;27.50;;;;;-143.93;100.00;62969.28;5005696;28;8833;-69
2022/04/25 05:12:01;;;;;;;;;37.00;25.50;;;;;-143.93;100.00;62969.28;5006516;28;8852;-69
2022/04/25 05:14:27;;;;;;;;;42.25;29.25;;;;;-143.93;100.00;62969.28;5005402;28;8858;-70
2022/04/25 05:16:52;;;;;;;;;30.75;27.50;;;;;-143.93;100.00;62969.28;5007852;28;8828;-69
2022/04/25 05:19:17;;;;;;;;;34.50;26.25;;;;;-143.93;100.00;62969.28;5007694;28;9434;-69
2022/04/25 05:21:43;;;;;;;;;33.00;28.50;;;;;-143.93;100.00;62969.28;5006264;28;8934;-69
2022/04/25 05:24:09;;;;;;;;;34.00;25.50;;;;;-143.93;100.00;62969.28;5006288;28;8924;-69
2022/04/25 05:26:34;;;;;;;;;39.50;31.75;;;;;-143.93;100.00;62969.28;5006494;28;8817;-69
2022/04/25 05:29:00;;;;;;;;;29.50;26.75;;;;;-143.93;100.00;62969.28;5006478;28;8793;-69
2022/04/25 05:31:25;;;;;;;;;36.75;29.00;;;;;-143.93;100.00;62969.28;5006402;28;8817;-69
2022/04/25 05:33:50;;;;;;;;;36.25;27.50;;;;;-143.93;100.00;62969.28;5006152;28;9049;-69
2022/04/25 05:36:15;;;;;;;;;36.75;31.25;;;;;-143.93;100.00;62969.28;5006553;28;8806;-69
2022/04/25 05:38:41;;;;;;;;;32.25;30.75;;;;;-143.93;100.00;62969.28;5006382;28;8813;-69
2022/04/25 05:41:09;;;;;;;;;40.50;26.50;;;;;-143.93;100.00;62969.28;5001671;28;8858;-69
2022/04/25 05:43:35;;;;;;;;;35.00;29.25;;;;;-143.93;100.00;62969.28;5008145;28;8936;-69
2022/04/25 05:46:01;;;;;;;;;37.50;30.50;;;;;-143.93;100.00;62969.28;5006432;28;8797;-69
2022/04/25 05:54:07;;;;;;;;;36.50;32.00;;;;;-143.93;100.00;62969.28;4976986;28;8839;-69
2022/04/25 05:56:33;;;;;;;;;43.50;33.25;;;;;-143.93;100.00;62969.28;4975686;28;8901;-69
2022/04/25 05:58:58;;;;;;;;;39.75;35.00;;;;;-143.93;100.00;62969.28;4974810;28;8804;-69
2022/04/25 06:01:24;;;;;;;;;39.75;32.25;;;;;-143.93;100.00;62969.28;4970703;28;8870;-69
2022/04/25 06:03:49;;;;;;;;;39.50;33.25;;;;;-143.93;100.00;62969.28;4976810;28;9087;-69
2022/04/25 06:06:14;;;;;;;;;42.75;33.25;;;;;-143.93;100.00;62969.28;4976739;28;8839;-69
2022/04/25 06:08:40;;;;;;;;;47.25;33.25;;;;;-143.93;100.00;62969.28;4976544;28;8881;-69
2022/04/25 06:11:05;;;;;;;;;40.75;34.00;;;;;-143.93;100.00;62969.28;4973951;28;8840;-69
2022/04/25 06:13:30;;;;;;;;;46.50;36.75;;;;;-143.93;100.00;62969.28;4970684;28;8831;-69
2022/04/25 06:15:56;;;;;;;;;35.50;31.25;;;;;-143.93;100.00;62969.28;4977067;28;8819;-69
2022/04/25 06:18:22;;;;;;;;;50.75;37.25;;;;;-143.93;100.00;62969.28;4977201;28;8921;-69
2022/04/25 06:20:49;;;;;;;;;46.25;36.50;;;;;-143.93;100.00;62969.28;4977080;28;8805;-69
2022/04/25 06:23:14;;;;;;;;;44.25;33.50;;;;;-143.93;100.00;62969.28;4973015;28;8825;-69
2022/04/25 06:25:39;;;;;;;;;43.50;34.00;;;;;-143.93;100.00;62969.28;4971055;28;8795;-69
2022/04/25 06:28:05;;;;;;;;;51.50;36.50;;;;;-143.93;100.00;62969.28;5005123;28;8817;-69
2022/04/25 06:30:30;;;;;;;;;44.75;37.25;;;;;-143.93;100.00;62969.28;5005246;28;8813;-69
2022/04/25 06:32:57;;;;;;;;;51.50;38.50;;;;;-143.93;100.00;62969.28;4998825;28;13187;-69
2022/04/25 06:35:24;;;;;;;;;45.50;36.00;;;;;-143.93;100.00;62969.28;5005519;28;8786;-69
2022/04/25 06:37:49;;;;;;;;;42.75;36.00;;;;;-143.93;100.00;62969.28;5006951;28;8820;-69
2022/04/25 06:40:15;;;;;;;;;43.00;35.25;;;;;-143.93;100.00;62969.28;5005818;28;8806;-69
2022/04/25 06:42:41;;;;;;;;;48.00;39.00;;;;;-143.93;100.00;62969.28;5005229;28;8858;-69
2022/04/25 06:45:06;;;;;;;;;48.75;39.50;;;;;-143.93;100.00;62969.28;5005252;28;8868;-69
2022/04/25 06:47:32;;;;;;;;;43.00;37.00;;;;;-143.93;100.00;62969.28;5003902;28;8820;-69
2022/04/25 06:49:57;;;;;;;;;55.50;38.75;;;;;-143.93;100.00;62969.28;5005575;28;9529;-69
2022/04/25 06:52:23;;;;;;;;;43.00;35.00;;;;;-143.93;100.00;62969.28;5006817;28;8922;-69
2022/04/25 06:54:49;;;;;;;;;51.50;39.75;;;;;-143.93;100.00;62969.28;5004984;28;9612;-69
2022/04/25 06:57:14;;;;;;;;;44.50;35.25;;;;;-143.93;100.00;62969.28;5004963;28;8805;-69
2022/04/25 06:59:39;;;;;;;;;40.25;35.00;;;;;-143.93;100.00;62969.28;5004997;28;8931;-69
2022/04/25 07:02:05;;;;;;;;;48.25;37.75;;;;;-143.93;100.00;62969.28;5002354;28;8864;-69
2022/04/25 07:04:31;;;;;;;;;45.75;40.00;;;;;-143.93;100.00;62969.28;5005566;28;8809;-69
2022/04/25 07:06:56;;;;;;;;;49.75;39.00;;;;;-143.93;100.00;62969.28;5004859;27;8943;-69
2022/04/25 07:09:22;;;;;;;;;50.50;40.00;;;;;-143.93;100.00;62969.28;5005057;28;8912;-69
2022/04/25 07:11:48;;;;;;;;;50.25;36.25;;;;;-143.93;100.00;62969.28;5018541;27;9623;-69
2022/04/25 07:14:15;;;;;;;;;48.50;39.50;;;;;-143.93;100.00;62969.28;5003201;28;8948;-69
2022/04/25 07:16:44;;;;;;;;;48.00;37.75;;;;;-143.93;100.00;62969.28;5004966;28;8801;-69
2022/04/25 07:19:10;;;;;;;;;51.00;39.25;;;;;-143.93;100.00;62969.28;4995935;28;8828;-69
2022/04/25 07:29:48;;;;;;;;;40.25;35.50;;;;;-143.93;100.00;62969.28;5001674;28;8928;-69
2022/04/25 07:32:15;;;;;;;;;46.50;36.00;;;;;-143.93;100.00;62969.28;5003952;28;8834;-69
2022/04/25 07:34:42;;;;;;;;;47.50;39.00;;;;;-143.93;100.00;62969.28;5005004;28;8789;-69
2022/04/25 07:37:08;;;;;;;;;47.00;37.00;;;;;-143.93;100.00;62969.28;5000652;28;8814;-69
2022/04/25 07:39:33;;;;;;;;;44.25;35.75;;;;;-143.93;100.00;62969.28;5003219;28;9670;-69
2022/04/25 07:41:58;;;;;;;;;48.00;38.00;;;;;-143.93;100.00;62969.28;5001146;28;8951;-69
2022/04/25 07:44:24;;;;;;;;;48.25;38.00;;;;;-143.93;100.00;62969.28;5004707;28;8840;-69
2022/04/25 07:46:50;;;;;;;;;47.50;38.00;;;;;-143.93;100.00;62969.28;5005635;28;8914;-69
2022/04/25 07:49:16;;;;;;;;;48.00;38.50;;;;;-143.93;100.00;62969.28;5001791;28;8830;-69
2022/04/25 07:51:41;;;;;;;;;49.25;39.25;;;;;-143.93;100.00;62969.28;4998513;28;8839;-70
2022/04/25 07:54:08;;;;;;;;;39.50;32.25;;;;;-143.93;100.00;62969.28;4992108;28;8975;-69
2022/04/25 07:56:35;;;;;;;;;48.25;37.50;;;;;-143.93;100.00;62969.28;5003430;28;8804;-69
2022/04/25 07:59:00;;;;;;;;;48.75;36.75;;;;;-143.93;100.00;62969.28;5005909;28;8830;-69
2022/04/25 08:01:29;;;;;;;;;42.00;35.25;;;;;-143.93;100.00;62969.28;4995116;28;8862;-70
2022/04/25 08:03:56;;;;;;;;;48.00;38.00;;;;;-143.93;100.00;62969.28;4999098;28;8951;-69
2022/04/25 08:06:22;;;;;;;;;49.75;40.50;;;;;-143.93;100.00;62969.28;5001332;28;8846;-69
2022/04/25 08:08:52;;;;;;;;;47.25;37.75;;;;;-143.93;100.00;62969.28;4989894;28;8801;-69
2022/04/25 08:11:19;;;;;;;;;51.25;43.25;;;;;-143.93;100.00;62969.28;5005529;28;8897;-69
2022/04/25 08:19:14;;;;;;;;;51.50;38.00;;;;;-143.93;100.00;62969.28;5007817;28;8794;-69
2022/04/25 08:21:41;;;;;;;;;48.50;40.25;;;;;-143.93;100.00;62969.28;5007048;28;8839;-69
2022/04/25 08:24:06;;;;;;;;;47.00;38.75;;;;;-143.93;100.00;62969.28;5007195;28;8809;-69
2022/04/25 08:26:31;;;;;;;;;50.25;41.00;;;;;-143.93;100.00;62969.28;5006713;28;8805;-70
2022/04/25 08:28:57;;;;;;;;;46.75;36.75;;;;;-143.93;100.00;62969.28;5008446;28;8817;-69
2022/04/25 08:31:22;;;;;;;;;46.75;36.75;;;;;-143.93;100.00;62969.28;5006927;28;8943;-69
2022/04/25 08:33:48;;;;;;;;;49.25;41.50;;;;;-143.93;100.00;62969.28;5006752;28;8848;-69
2022/04/25 08:36:16;;;;;;;;;49.25;38.25;;;;;-143.93;100.00;62969.28;5006862;28;9623;-69
2022/04/25 08:38:43;;;;;;;;;47.25;38.75;;;;;-143.93;100.00;62969.28;5007488;28;8809;-69
2022/04/25 08:41:10;;;;;;;;;48.75;36.00;;;;;-143.93;100.00;62969.28;5006988;28;8809;-70
2022/04/25 08:43:38;;;;;;;;;45.50;36.00;;;;;-143.93;100.00;62969.28;5003499;28;8854;-69
2022/04/25 08:46:05;;;;;;;;;43.50;33.75;;;;;-143.93;100.00;62969.28;5004381;28;8805;-70
2022/04/25 08:48:31;;;;;;;;;44.75;37.75;;;;;-143.93;100.00;62969.28;5006885;28;8801;-69
2022/04/25 08:50:58;;;;;;;;;43.00;34.75;;;;;-143.93;100.00;62969.28;5007329;28;8852;-69
2022/04/25 08:53:25;;;;;;;;;45.50;36.75;;;;;-143.93;100.00;62969.28;5006629;28;9573;-70
2022/04/25 08:55:53;;;;;;;;;50.25;36.00;;;;;-143.93;100.00;62969.28;5008488;28;8778;-70
2022/04/25 08:58:20;;;;;;;;;41.25;34.00;;;;;-143.93;100.00;62969.28;5007704;28;8836;-70
2022/04/25 09:00:45;;;;;;;;;47.75;35.50;;;;;-143.93;100.00;62969.28;5006555;28;8786;-70
2022/04/25 09:03:12;;;;;;;;;38.00;30.25;;;;;-143.93;100.00;62969.28;5021679;28;8829;-70
2022/04/25 09:05:38;;;;;;;;;35.25;32.00;;;;;-143.93;100.00;62969.28;5006630;28;8848;-68
2022/04/25 09:08:04;;;;;;;;;36.00;31.50;;;;;-143.93;100.00;62969.28;5006981;28;8858;-69
2022/04/25 09:10:30;;;;;;;;;33.00;30.50;;;;;-143.93;100.00;62969.28;5007423;28;8809;-69
2022/04/25 09:12:58;;;;;;;;;38.75;31.75;;;;;-143.93;100.00;62969.28;5005811;28;8813;-68
2022/04/25 09:15:23;;;;;;;;;32.75;30.75;;;;;-143.93;100.00;62969.28;5006424;27;8814;-68
2022/04/25 09:17:51;;;;;;;;;40.75;33.50;;;;;-143.93;100.00;62969.28;5006180;28;8886;-69
2022/04/25 09:20:18;;;;;;;;;32.75;29.25;;;;;-143.93;100.00;62969.28;5020851;28;8843;-68
2022/04/25 09:22:44;;;;;;;;;36.25;31.75;;;;;-143.93;100.00;62969.28;5008622;28;8810;-69
2022/04/25 09:25:15;;;;;;;;;34.75;32.75;;;;;-143.93;100.00;62969.28;5005094;28;8836;-68
2022/04/25 09:27:41;;;;;;;;;35.00;29.00;;;;;-143.93;100.00;62969.28;5006102;28;8817;-68
2022/04/25 09:30:20;;;;;;;;;36.00;30.50;;;;;-143.93;100.00;62969.28;5006354;28;8797;-69
2022/04/25 09:32:47;;;;;;;;;27.00;24.75;;;;;-143.93;100.00;62969.28;5006423;28;8797;-68
2022/04/25 09:35:28;;;;;;;;;30.50;28.25;;;;;-143.93;100.00;62969.28;5006539;28;8842;-69
2022/04/25 09:37:53;;;;;;;;;32.50;28.75;;;;;-143.93;100.00;62969.28;5003717;28;8820;-69
2022/04/25 09:40:21;;;;;;;;;29.25;29.00;;;;;-143.93;100.00;62969.28;5007288;28;8829;-68
2022/04/25 09:42:48;;;;;;;;;32.50;27.75;;;;;-143.93;100.00;62969.28;5004731;27;8815;-69
2022/04/25 09:45:15;;;;;;;;;30.50;28.25;;;;;-143.93;100.00;62969.28;4997322;28;8838;-69
2022/04/25 09:47:41;;;;;;;;;28.50;27.50;;;;;-143.93;100.00;62969.28;5004616;28;8802;-69
2022/04/25 09:50:08;;;;;;;;;28.25;26.25;;;;;-143.93;100.00;62969.28;5006482;28;8796;-69
2022/04/25 09:52:51;;;;;;;;;27.00;20.75;;;;;-143.93;100.00;62969.28;5007994;28;8785;-69
2022/04/25 09:55:17;;;;;;;;;26.00;25.75;;;;;-143.93;100.00;62969.28;5007459;28;9581;-69
2022/04/25 09:57:48;;;;;;;;;29.50;25.75;;;;;-143.93;100.00;62969.28;5006175;28;8876;-69
2022/04/25 10:00:34;;;;;;;;;31.25;28.25;;;;;-143.93;100.00;62969.28;5005815;28;8832;-69
2022/04/25 10:03:02;;;;;;;;;30.75;26.50;;;;;-143.93;100.00;62969.28;5004247;28;8893;-69
2022/04/25 10:05:40;;;;;;;;;31.25;29.00;;;;;-143.93;100.00;62969.28;5006115;28;8843;-68
2022/04/25 10:08:09;;;;;;;;;26.25;25.50;;;;;-143.93;100.00;62969.28;5005944;28;8922;-69
2022/04/25 10:10:39;;;;;;;;;34.00;28.50;;;;;-143.93;100.00;62969.28;5006490;28;8813;-68
2022/04/25 10:13:06;;;;;;;;;30.25;28.50;;;;;-143.93;100.00;62969.28;5004044;28;8909;-69
2022/04/25 10:15:31;;;;;;;;;35.75;28.75;;;;;-143.93;100.00;62969.28;5005604;28;8801;-69
2022/04/25 10:17:59;;;;;;;;;32.25;29.00;;;;;-143.93;100.00;62969.28;5006109;28;9003;-69
2022/04/25 10:20:25;;;;;;;;;27.25;26.25;;;;;-143.93;100.00;62969.28;5020818;28;8821;-69
2022/04/25 10:22:50;;;;;;;;;35.25;30.00;;;;;-143.93;100.00;62969.28;4999343;28;8812;-69
2022/04/25 10:25:16;;;;;;;;;37.50;28.75;;;;;-143.93;100.00;62969.28;5005374;28;8829;-69
2022/04/25 10:27:43;;;;;;;;;27.75;26.00;;;;;-143.93;100.00;62969.28;5004147;28;8817;-69
2022/04/25 10:30:14;;;;;;;;;31.50;30.00;;;;;-143.93;100.00;62969.28;5005579;28;8797;-68
2022/04/25 10:32:41;;;;;;;;;28.00;27.25;;;;;-143.93;100.00;62969.28;5005372;28;8874;-68
2022/04/25 10:35:13;;;;;;;;;32.50;30.00;;;;;-143.93;100.00;62969.28;5005395;28;8851;-68
2022/04/25 10:37:41;;;;;;;;;36.50;30.25;;;;;-143.93;100.00;62969.28;5007731;28;8742;-70
2022/04/25 10:40:08;;;;;;;;;31.75;30.00;;;;;-143.93;100.00;62969.28;5005301;28;8800;-69
2022/04/25 10:46:00;;;;;;;;;28.50;26.25;;;;;-143.93;100.00;62969.28;5004313;28;8801;-69
2022/04/25 10:48:27;;;;;;;;;24.00;22.75;;;;;-143.93;100.00;62969.28;5000856;28;8801;-69
2022/04/25 10:51:12;;;;;;;;;26.50;22.50;;;;;-143.93;100.00;62969.28;5007737;28;8786;-68
2022/04/25 10:54:02;;;;;;;;;30.00;25.75;;;;;-143.93;100.00;62969.28;5008325;28;8829;-68
2022/04/25 10:56:28;;;;;;;;;23.00;22.50;;;;;-143.93;100.00;62969.28;4995714;28;8810;-69
2022/04/25 10:59:25;;;;;;;;;28.75;24.50;;;;;-143.93;100.00;62969.28;5009112;28;8907;-68
2022/04/25 11:01:52;;;;;;;;;32.00;28.25;;;;;-143.93;100.00;62969.28;5006712;28;8798;-68
2022/04/25 11:04:20;;;;;;;;;28.00;26.25;;;;;-143.93;100.00;62969.28;5009161;28;8797;-68
2022/04/25 11:06:46;;;;;;;;;27.75;25.75;;;;;-143.93;100.00;62969.28;5006971;28;8986;-70
2022/04/25 11:09:39;;;;;;;;;27.25;25.75;;;;;-143.93;100.00;62969.28;5008153;28;8778;-68
2022/04/25 11:12:06;;;;;;;;;26.25;24.25;;;;;-143.93;100.00;62969.28;5007205;28;8869;-69
2022/04/25 11:14:31;;;;;;;;;28.25;26.00;;;;;-143.93;100.00;62969.28;5003103;28;8880;-69
2022/04/25 11:17:11;;;;;;;;;25.25;23.75;;;;;-143.93;100.00;62969.28;5008496;28;8948;-68
2022/04/25 11:19:48;;;;;;;;;22.50;21.00;;;;;-143.93;100.00;62969.28;5009834;28;9675;-69
2022/04/25 11:22:38;;;;;;;;;23.25;18.00;;;;;-143.93;100.00;62969.28;5008265;28;8932;-69
2022/04/25 11:25:22;;;;;;;;;25.75;20.50;;;;;-143.93;100.00;62969.28;5008003;28;8817;-69
2022/04/25 11:27:59;;;;;;;;;20.75;20.75;;;;;-143.93;100.00;62969.28;5007759;28;8801;-69
2022/04/25 11:30:25;;;;;;;;;25.25;21.75;;;;;-143.93;100.00;62969.28;5007715;28;8863;-69
2022/04/25 11:32:51;;;;;;;;;22.75;19.00;;;;;-143.93;100.00;62969.28;5007647;28;8813;-70